createdAt,value
2018-07-05T00:00:25.744Z,55.41
2018-07-05T00:03:06.018Z,54.47
2018-07-05T00:05:46.391Z,54.94
2018-07-05T00:08:26.738Z,56.20
2018-07-05T00:11:07.202Z,55.03
2018-07-05T00:13:47.357Z,55.64
2018-07-05T00:16:27.576Z,56.30
2018-07-05T00:19:07.983Z,55.57
2018-07-05T00:21:48.313Z,57.17
2018-07-05T00:24:28.984Z,57.17
2018-07-05T00:27:09.389Z,56.66
2018-07-05T00:29:49.737Z,56.51
2018-07-05T00:32:30.192Z,55.54
2018-07-05T00:35:10.621Z,56.91
2018-07-05T00:37:50.933Z,56.36
2018-07-05T00:40:31.495Z,54.53
2018-07-05T00:43:11.996Z,56.86
2018-07-05T00:45:52.513Z,55.69
2018-07-05T00:48:32.981Z,56.50
2018-07-05T00:51:13.543Z,56.17
2018-07-05T00:53:53.776Z,57.24
2018-07-05T00:56:34.102Z,57.45
2018-07-05T00:59:14.297Z,57.68
2018-07-05T01:01:54.645Z,57.82
2018-07-05T01:04:34.932Z,57.50
2018-07-05T01:07:15.241Z,57.41
2018-07-05T01:09:55.649Z,56.77
2018-07-05T01:12:36.163Z,57.07
2018-07-05T01:15:16.476Z,57.10
2018-07-05T01:17:56.833Z,58.35
2018-07-05T01:20:37.187Z,58.19
2018-07-05T01:23:17.598Z,58.47
2018-07-05T01:25:57.913Z,58.14
2018-07-05T01:28:38.401Z,58.03
2018-07-05T01:31:18.805Z,57.33
2018-07-05T01:33:59.153Z,58.85
2018-07-05T01:36:39.476Z,58.54
2018-07-05T01:39:19.845Z,58.00
2018-07-05T01:42:00.171Z,58.86
2018-07-05T01:44:40.598Z,58.19
2018-07-05T01:47:20.948Z,58.95
2018-07-05T01:50:01.389Z,59.10
2018-07-05T01:52:41.943Z,59.80
2018-07-05T01:55:22.399Z,59.73
2018-07-05T01:58:02.755Z,59.64
2018-07-05T02:00:43.146Z,59.37
2018-07-05T02:06:02.982Z,60.66
2018-07-05T02:08:43.171Z,59.62
2018-07-05T02:11:23.595Z,59.76
2018-07-05T02:14:03.981Z,60.07
2018-07-05T02:16:44.349Z,60.61
2018-07-05T02:19:24.766Z,60.10
2018-07-05T02:22:05.191Z,60.31
2018-07-05T02:24:46.555Z,60.71
2018-07-05T02:27:26.945Z,59.91
2018-07-05T02:30:07.246Z,60.26
2018-07-05T02:32:47.478Z,59.72
2018-07-05T02:35:27.813Z,59.33
2018-07-05T02:38:13.556Z,59.28
2018-07-05T02:40:53.969Z,60.32
2018-07-05T02:43:34.337Z,58.55
2018-07-05T02:46:14.698Z,58.49
2018-07-05T02:48:55.147Z,58.84
2018-07-05T02:51:35.462Z,58.67
2018-07-05T02:54:16.074Z,58.60
2018-07-05T02:56:56.528Z,58.87
2018-07-05T02:59:37.257Z,57.86
2018-07-05T03:02:18.197Z,58.15
2018-07-05T03:04:58.678Z,56.96
2018-07-05T03:07:38.973Z,56.87
2018-07-05T03:10:19.293Z,57.38
2018-07-05T03:12:59.675Z,57.26
2018-07-05T03:15:40.158Z,56.70
2018-07-05T03:18:20.487Z,57.75
2018-07-05T03:21:00.865Z,57.84
2018-07-05T03:23:41.361Z,57.02
2018-07-05T03:26:21.812Z,57.47
2018-07-05T03:29:02.298Z,57.26
2018-07-05T03:31:43.811Z,57.58
2018-07-05T03:34:25.220Z,58.09
2018-07-05T03:37:05.536Z,57.64
2018-07-05T03:39:45.915Z,57.27
2018-07-05T03:42:26.277Z,57.84
2018-07-05T03:45:06.738Z,57.74
2018-07-05T03:47:47.327Z,58.09
2018-07-05T03:50:27.897Z,57.85
2018-07-05T03:53:08.310Z,57.44
2018-07-05T03:55:48.817Z,57.53
2018-07-05T03:58:29.386Z,57.29
2018-07-05T04:01:09.817Z,57.29
2018-07-05T04:03:50.155Z,56.83
2018-07-05T04:06:30.533Z,57.66
2018-07-05T04:09:10.999Z,57.29
2018-07-05T04:11:51.641Z,57.41
2018-07-05T04:14:31.998Z,56.51
2018-07-05T04:17:12.430Z,56.72
2018-07-05T04:19:52.878Z,57.48
2018-07-05T04:22:33.121Z,57.49
2018-07-05T04:25:13.586Z,56.47
2018-07-05T04:27:54.050Z,57.42
2018-07-05T04:30:34.410Z,57.03
2018-07-05T04:33:14.764Z,57.23
2018-07-05T04:35:55.105Z,57.12
2018-07-05T04:38:35.497Z,57.38
2018-07-05T04:41:15.944Z,57.90
2018-07-05T04:43:56.265Z,57.40
2018-07-05T04:46:36.535Z,57.54
2018-07-05T04:49:17.014Z,57.53
2018-07-05T04:51:57.505Z,59.71
2018-07-05T04:54:37.785Z,57.66
2018-07-05T04:57:18.270Z,57.40
2018-07-05T04:59:58.660Z,57.37
2018-07-05T05:02:39.041Z,56.60
2018-07-05T05:05:19.573Z,55.93
2018-07-05T05:07:59.831Z,56.66
2018-07-05T05:10:40.401Z,55.55
2018-07-05T05:13:20.835Z,54.83
2018-07-05T05:16:01.251Z,55.10
2018-07-05T05:18:41.678Z,54.95
2018-07-05T05:21:22.106Z,55.28
2018-07-05T05:24:02.625Z,54.73
2018-07-05T05:26:43.292Z,53.91
2018-07-05T05:29:23.721Z,53.85
2018-07-05T05:32:04.192Z,53.15
2018-07-05T05:34:44.601Z,52.40
2018-07-05T05:37:25.064Z,51.60
2018-07-05T05:40:05.621Z,49.97
2018-07-05T05:42:46.024Z,49.76
2018-07-05T05:45:26.315Z,49.01
2018-07-05T05:48:06.804Z,47.25
2018-07-05T05:50:47.633Z,47.15
2018-07-05T05:53:28.027Z,47.19
2018-07-05T05:56:08.382Z,46.59
2018-07-05T05:58:48.792Z,46.57
2018-07-05T06:01:29.197Z,47.67
2018-07-05T06:04:09.726Z,45.89
2018-07-05T06:06:50.096Z,47.22
2018-07-05T06:09:30.489Z,46.01
2018-07-05T06:12:10.908Z,46.61
2018-07-05T06:14:51.298Z,45.54
2018-07-05T06:17:31.793Z,44.03
2018-07-05T06:20:12.227Z,44.84
2018-07-05T06:22:52.869Z,45.27
2018-07-05T06:25:33.339Z,44.93
2018-07-05T06:28:13.794Z,44.77
2018-07-05T06:30:54.361Z,45.56
2018-07-05T06:33:34.730Z,44.51
2018-07-05T06:36:15.245Z,45.73
2018-07-05T06:38:55.664Z,45.58
2018-07-05T06:41:36.169Z,44.86
2018-07-05T06:44:19.946Z,45.97
2018-07-05T06:47:00.254Z,44.57
2018-07-05T06:49:40.738Z,44.76
2018-07-05T06:52:21.110Z,44.89
2018-07-05T06:55:01.614Z,44.53
2018-07-05T06:57:42.001Z,44.74
2018-07-05T07:00:22.517Z,44.56
2018-07-05T07:03:02.949Z,43.22
2018-07-05T07:05:43.365Z,43.31
2018-07-05T07:08:24.061Z,42.00
2018-07-05T07:11:04.594Z,40.46
2018-07-05T07:13:45.049Z,37.63
2018-07-05T07:16:25.620Z,37.62
2018-07-05T07:19:05.984Z,38.51
2018-07-05T07:21:46.393Z,39.60
2018-07-05T07:24:26.804Z,38.26
2018-07-05T07:27:07.267Z,37.12
2018-07-05T07:29:47.862Z,37.14
2018-07-05T07:32:28.384Z,37.04
2018-07-05T07:35:09.000Z,35.16
2018-07-05T07:37:49.465Z,32.79
2018-07-05T07:40:30.082Z,33.14
2018-07-05T07:42:58.160Z,32.77
2018-07-05T07:45:26.152Z,31.01
2018-07-05T07:47:54.123Z,30.96
2018-07-05T07:50:22.091Z,29.21
2018-07-05T07:52:50.038Z,31.36
2018-07-05T07:55:18.024Z,29.81
2018-07-05T07:57:46.017Z,29.34
2018-07-05T08:00:13.959Z,29.27
2018-07-05T08:02:41.924Z,29.55
2018-07-05T08:05:09.933Z,30.45
2018-07-05T08:07:37.921Z,27.47
2018-07-05T08:10:05.953Z,28.27
2018-07-05T08:12:33.911Z,26.68
2018-07-05T08:15:01.908Z,25.86
2018-07-05T08:17:29.862Z,25.78
2018-07-05T08:19:57.829Z,26.91
2018-07-05T08:22:25.806Z,26.70
2018-07-05T08:24:53.797Z,27.19
2018-07-05T08:27:21.741Z,27.47
2018-07-05T08:29:49.743Z,28.34
2018-07-05T08:32:17.728Z,29.22
2018-07-05T08:34:45.709Z,29.95
2018-07-05T08:37:13.764Z,29.41
2018-07-05T08:39:41.639Z,30.00
2018-07-05T08:42:09.622Z,28.88
2018-07-05T08:44:37.575Z,28.26
2018-07-05T08:47:05.558Z,27.95
2018-07-05T08:49:33.510Z,27.15
2018-07-05T08:52:01.470Z,28.78
2018-07-05T08:54:29.434Z,25.08
2018-07-05T08:56:57.427Z,25.35
2018-07-05T08:59:25.390Z,25.94
2018-07-05T09:01:53.375Z,26.37
2018-07-05T09:04:21.327Z,28.66
2018-07-05T09:06:49.311Z,28.31
2018-07-05T09:09:17.262Z,27.06
2018-07-05T09:11:45.273Z,25.91
2018-07-05T09:14:13.225Z,25.26
2018-07-05T09:16:41.195Z,27.97
2018-07-05T09:19:09.164Z,29.06
2018-07-05T09:21:37.137Z,25.50
2018-07-05T09:24:05.129Z,25.60
2018-07-05T09:26:33.089Z,24.27
2018-07-05T09:29:01.068Z,24.49
2018-07-05T09:31:29.241Z,23.36
2018-07-05T09:33:57.199Z,22.38
2018-07-05T09:36:25.377Z,24.08
2018-07-05T09:38:53.340Z,24.42
2018-07-05T09:41:21.558Z,22.98
2018-07-05T09:43:49.515Z,21.59
2018-07-05T09:46:17.482Z,21.85
2018-07-05T09:48:45.425Z,23.00
2018-07-05T09:51:13.441Z,25.69
2018-07-05T09:53:41.438Z,24.35
2018-07-05T09:56:09.458Z,25.23
2018-07-05T09:58:37.403Z,25.90
2018-07-05T10:01:09.305Z,25.52
2018-07-05T10:03:37.521Z,23.73
2018-07-05T10:06:05.454Z,22.59
2018-07-05T10:08:33.411Z,23.17
2018-07-05T10:11:01.399Z,22.22
2018-07-05T10:13:29.513Z,22.07
2018-07-05T10:15:57.345Z,21.71
2018-07-05T10:18:25.313Z,23.80
2018-07-05T10:20:53.465Z,23.33
2018-07-05T10:23:21.447Z,25.30
2018-07-05T10:25:49.416Z,24.81
2018-07-05T10:28:17.395Z,23.46
2018-07-05T10:30:57.606Z,23.36
2018-07-05T10:33:37.900Z,23.92
2018-07-05T10:36:05.857Z,25.41
2018-07-05T10:38:34.360Z,23.02
2018-07-05T10:41:14.672Z,22.04
2018-07-05T10:43:55.031Z,21.87
2018-07-05T10:46:35.571Z,22.60
2018-07-05T10:49:16.003Z,23.59
2018-07-05T10:51:56.341Z,25.85
2018-07-05T10:54:36.640Z,27.54
2018-07-05T10:57:16.983Z,29.26
2018-07-05T10:59:57.217Z,28.15
2018-07-05T11:02:37.617Z,27.78
2018-07-05T11:05:18.076Z,27.09
2018-07-05T11:07:58.457Z,27.80
2018-07-05T11:10:38.838Z,27.40
2018-07-05T11:13:19.260Z,29.32
2018-07-05T11:15:59.826Z,28.11
2018-07-05T11:18:40.257Z,26.42
2018-07-05T11:21:20.556Z,27.90
2018-07-05T11:24:00.711Z,26.35
2018-07-05T11:26:41.077Z,25.29
2018-07-05T11:29:21.344Z,26.11
2018-07-05T11:32:01.651Z,26.57
2018-07-05T11:34:41.861Z,26.26
2018-07-05T11:37:22.163Z,25.05
2018-07-05T11:40:02.405Z,26.48
2018-07-05T11:42:42.797Z,24.59
2018-07-05T11:45:23.141Z,25.11
2018-07-05T11:48:03.461Z,25.75
2018-07-05T11:50:43.904Z,26.62
2018-07-05T11:53:24.383Z,27.50
2018-07-05T11:56:04.789Z,26.91
2018-07-05T11:58:45.179Z,27.64
2018-07-05T12:01:25.595Z,28.12
2018-07-05T12:04:06.116Z,26.66
2018-07-05T12:06:46.467Z,25.52
2018-07-05T12:09:26.928Z,24.15
2018-07-05T12:12:07.214Z,24.06
2018-07-05T12:14:47.661Z,25.04
2018-07-05T12:17:28.042Z,25.32
2018-07-05T12:20:08.333Z,26.05
2018-07-05T12:22:48.695Z,27.19
2018-07-05T12:25:28.991Z,26.04
2018-07-05T12:28:09.313Z,24.32
2018-07-05T12:30:49.646Z,26.14
2018-07-05T12:33:29.928Z,24.16
2018-07-05T12:36:10.208Z,23.71
2018-07-05T12:38:50.722Z,24.79
2018-07-05T12:41:31.094Z,24.38
2018-07-05T12:44:11.406Z,23.54
2018-07-05T12:46:51.825Z,24.92
2018-07-05T12:49:32.781Z,25.37
2018-07-05T12:52:13.059Z,24.24
2018-07-05T12:54:53.393Z,24.89
2018-07-05T12:57:33.846Z,23.98
2018-07-05T13:00:14.069Z,23.93
2018-07-05T13:02:54.521Z,21.73
2018-07-05T13:05:34.936Z,23.33
2018-07-05T13:08:15.402Z,21.01
2018-07-05T13:10:56.127Z,21.32
2018-07-05T13:13:36.671Z,22.78
2018-07-05T13:16:17.003Z,22.39
2018-07-05T13:18:57.461Z,23.35
2018-07-05T13:21:37.890Z,25.66
2018-07-05T13:24:18.220Z,26.89
2018-07-05T13:26:58.527Z,25.79
2018-07-05T13:29:38.823Z,25.32
2018-07-05T13:32:19.367Z,24.97
2018-07-05T13:34:59.675Z,25.37
2018-07-05T13:37:39.889Z,23.30
2018-07-05T13:40:20.269Z,23.65
2018-07-05T13:43:00.739Z,24.15
2018-07-05T13:45:41.207Z,24.61
2018-07-05T13:48:21.470Z,25.03
2018-07-05T13:51:01.858Z,22.22
2018-07-05T13:53:42.278Z,22.82
2018-07-05T13:56:22.613Z,23.87
2018-07-05T13:59:02.921Z,21.52
2018-07-05T14:01:43.359Z,21.09
2018-07-05T14:04:23.716Z,22.59
2018-07-05T14:07:04.345Z,23.06
2018-07-05T14:09:44.643Z,21.72
2018-07-05T14:12:24.933Z,20.78
2018-07-05T14:15:05.363Z,21.59
2018-07-05T14:17:45.738Z,20.74
2018-07-05T14:20:26.101Z,21.22
2018-07-05T14:23:06.430Z,22.28
2018-07-05T14:25:46.835Z,22.35
2018-07-05T14:28:27.386Z,21.12
2018-07-05T14:31:07.730Z,22.60
2018-07-05T14:33:48.074Z,22.27
2018-07-05T14:36:28.511Z,22.71
2018-07-05T14:39:09.137Z,22.61
2018-07-05T14:41:49.704Z,20.51
2018-07-05T14:44:30.038Z,23.14
2018-07-05T14:47:10.561Z,22.91
2018-07-05T14:49:50.832Z,22.48
2018-07-05T14:52:31.137Z,21.70
2018-07-05T14:55:11.370Z,23.48
2018-07-05T14:57:51.747Z,22.30
2018-07-05T15:00:32.084Z,23.36
2018-07-05T15:03:12.581Z,22.71
2018-07-05T15:05:52.956Z,22.62
2018-07-05T15:08:33.481Z,23.93
2018-07-05T15:11:13.745Z,23.04
2018-07-05T15:13:54.094Z,24.08
2018-07-05T15:16:34.369Z,24.64
2018-07-05T15:19:14.669Z,23.83
2018-07-05T15:21:55.006Z,24.15
2018-07-05T15:24:35.436Z,25.37
2018-07-05T15:27:15.812Z,23.33
2018-07-05T15:29:56.182Z,25.59
2018-07-05T15:32:36.593Z,24.49
2018-07-05T15:35:16.790Z,25.07
2018-07-05T15:37:57.205Z,25.56
2018-07-05T15:40:37.502Z,24.34
2018-07-05T15:43:17.830Z,24.21
2018-07-05T15:45:58.223Z,24.33
2018-07-05T15:48:38.527Z,25.33
2018-07-05T15:51:18.859Z,24.91
2018-07-05T15:53:59.227Z,24.85
2018-07-05T15:56:39.721Z,25.77
2018-07-05T15:59:20.025Z,25.51
2018-07-05T16:02:00.316Z,25.83
2018-07-05T16:04:40.664Z,26.68
2018-07-05T16:07:21.025Z,25.30
2018-07-05T16:10:01.420Z,28.12
2018-07-05T16:12:41.773Z,28.29
2018-07-05T16:15:22.214Z,29.65
2018-07-05T16:18:02.543Z,30.18
2018-07-05T16:20:42.928Z,32.36
2018-07-05T16:23:23.352Z,31.79
2018-07-05T16:26:03.757Z,32.46
2018-07-05T16:28:44.248Z,33.05
2018-07-05T16:31:24.557Z,33.91
2018-07-05T16:34:04.814Z,35.53
2018-07-05T16:36:45.053Z,35.67
2018-07-05T16:39:25.457Z,35.88
2018-07-05T16:42:05.926Z,35.83
2018-07-05T16:44:46.345Z,37.19
2018-07-05T16:47:26.646Z,38.12
2018-07-05T16:50:07.085Z,37.65
2018-07-05T16:52:47.606Z,38.41
2018-07-05T16:55:27.962Z,37.18
2018-07-05T16:58:08.265Z,37.43
2018-07-05T17:00:48.613Z,37.02
2018-07-05T17:03:28.985Z,38.00
2018-07-05T17:06:09.297Z,37.95
2018-07-05T17:08:49.618Z,37.02
2018-07-05T17:11:29.988Z,36.32
2018-07-05T17:14:10.708Z,36.34
2018-07-05T17:16:51.095Z,35.76
2018-07-05T17:19:31.489Z,36.66
2018-07-05T17:22:11.853Z,37.24
2018-07-05T17:24:52.233Z,37.42
2018-07-05T17:27:32.777Z,37.65
2018-07-05T17:30:13.391Z,37.29
2018-07-05T17:32:54.239Z,37.31
2018-07-05T17:35:34.729Z,37.66
2018-07-05T17:38:15.169Z,37.93
2018-07-05T17:40:55.738Z,38.54
2018-07-05T17:43:36.244Z,38.20
2018-07-05T17:46:16.742Z,38.02
2018-07-05T17:48:57.157Z,38.39
2018-07-05T17:51:37.565Z,37.96
2018-07-05T17:54:18.041Z,38.06
2018-07-05T17:56:58.449Z,38.06
2018-07-05T17:59:38.889Z,37.78
2018-07-05T18:02:19.512Z,37.42
2018-07-05T18:04:59.769Z,38.15
2018-07-05T18:07:40.041Z,37.73
2018-07-05T18:10:20.501Z,38.40
2018-07-05T18:13:00.867Z,38.12
2018-07-05T18:15:41.426Z,39.33
2018-07-05T18:18:22.121Z,40.31
2018-07-05T18:21:03.389Z,38.28
2018-07-05T18:23:43.874Z,38.68
2018-07-05T18:26:24.398Z,38.64
2018-07-05T18:29:05.050Z,40.85
2018-07-05T18:31:45.884Z,39.16
2018-07-05T18:34:26.496Z,39.58
2018-07-05T18:37:06.781Z,39.22
2018-07-05T18:39:47.219Z,38.65
2018-07-05T18:42:27.519Z,39.90
2018-07-05T18:45:07.875Z,40.13
2018-07-05T18:47:48.265Z,41.14
2018-07-05T18:50:28.640Z,39.45
2018-07-05T18:53:09.010Z,39.36
2018-07-05T18:55:49.411Z,41.83
2018-07-05T18:58:30.121Z,40.22
2018-07-05T19:01:10.578Z,40.98
2018-07-05T19:03:50.986Z,41.00
2018-07-05T19:06:31.421Z,41.83
2018-07-05T19:09:11.776Z,41.33
2018-07-05T19:11:52.136Z,42.76
2018-07-05T19:14:32.509Z,42.50
2018-07-05T19:17:12.934Z,41.99
2018-07-05T19:19:53.240Z,44.03
2018-07-05T19:22:33.553Z,44.01
2018-07-05T19:25:14.056Z,43.21
2018-07-05T19:27:54.589Z,43.51
2018-07-05T19:30:34.914Z,44.47
2018-07-05T19:33:15.288Z,45.68
2018-07-05T19:35:56.378Z,45.55
2018-07-05T19:38:36.877Z,46.60
2018-07-05T19:41:17.571Z,47.01
2018-07-05T19:43:58.056Z,48.10
2018-07-05T19:46:38.739Z,48.31
2018-07-05T19:49:19.225Z,49.43
2018-07-05T19:51:59.620Z,49.72
2018-07-05T19:54:40.004Z,50.24
2018-07-05T19:57:20.316Z,51.16
2018-07-05T20:00:00.702Z,51.47
2018-07-05T20:02:41.039Z,52.21
2018-07-05T20:05:21.385Z,52.36
2018-07-05T20:08:01.673Z,52.22
2018-07-05T20:10:42.087Z,52.94
2018-07-05T20:13:22.588Z,52.97
2018-07-05T20:16:03.231Z,54.00
2018-07-05T20:18:43.550Z,54.40
2018-07-05T20:21:23.929Z,54.33
2018-07-05T20:24:04.464Z,54.28
2018-07-05T20:26:45.559Z,53.97
2018-07-05T20:29:25.911Z,55.77
2018-07-05T20:32:06.390Z,55.09
2018-07-05T20:34:46.697Z,55.21
2018-07-05T20:37:27.006Z,55.98
2018-07-05T20:40:07.445Z,55.25
2018-07-05T20:42:47.840Z,56.42
2018-07-05T20:45:28.429Z,57.05
2018-07-05T20:48:09.070Z,56.87
2018-07-05T20:50:49.700Z,57.84
2018-07-05T20:53:29.959Z,57.41
2018-07-05T20:56:10.326Z,57.68
2018-07-05T20:58:50.776Z,58.36
2018-07-05T21:01:31.340Z,58.39
2018-07-05T21:04:11.918Z,59.02
2018-07-05T21:06:52.371Z,59.70
2018-07-05T21:09:32.754Z,59.75
2018-07-05T21:12:13.177Z,59.43
2018-07-05T21:14:53.677Z,60.62
2018-07-05T21:17:34.097Z,60.26
2018-07-05T21:20:14.474Z,61.52
2018-07-05T21:22:54.949Z,61.18
2018-07-05T21:25:35.316Z,61.99
2018-07-05T21:28:15.531Z,62.57
2018-07-05T21:30:55.980Z,62.93
2018-07-05T21:33:36.393Z,62.39
2018-07-05T21:36:17.103Z,64.36
2018-07-05T21:38:57.416Z,63.61
2018-07-05T21:41:37.849Z,64.10
2018-07-05T21:44:18.167Z,63.75
2018-07-05T21:46:58.476Z,64.76
2018-07-05T21:49:38.756Z,65.34
2018-07-05T21:52:19.077Z,65.16
2018-07-05T21:54:59.523Z,66.11
2018-07-05T21:57:39.814Z,66.48
2018-07-05T22:00:20.293Z,65.80
2018-07-05T22:03:00.753Z,66.69
2018-07-05T22:05:41.423Z,66.58
2018-07-05T22:08:22.004Z,67.01
2018-07-05T22:11:02.274Z,67.59
2018-07-05T22:13:42.665Z,67.27
2018-07-05T22:16:23.152Z,68.03
2018-07-05T22:19:08.961Z,67.88
2018-07-05T22:22:56.882Z,67.60
2018-07-05T22:25:42.845Z,68.12
2018-07-05T22:28:28.783Z,68.94
2018-07-05T22:31:14.803Z,68.99
2018-07-05T22:33:55.321Z,69.04
2018-07-05T22:36:35.739Z,69.79
2018-07-05T22:39:16.573Z,69.85
2018-07-05T22:41:57.049Z,69.92
2018-07-05T22:44:37.539Z,69.54
2018-07-05T22:47:18.108Z,69.95
2018-07-05T22:49:58.453Z,70.06
2018-07-05T22:52:38.805Z,70.58
2018-07-05T22:55:19.205Z,70.22
2018-07-05T22:57:59.645Z,70.36
2018-07-05T23:00:40.081Z,70.82
2018-07-05T23:03:20.510Z,71.46
2018-07-05T23:06:01.080Z,70.78
2018-07-05T23:08:41.769Z,70.30
2018-07-05T23:11:22.154Z,71.00
2018-07-05T23:14:04.317Z,70.73
2018-07-05T23:16:44.649Z,71.21
2018-07-05T23:19:25.048Z,70.05
2018-07-05T23:22:05.425Z,69.96
2018-07-05T23:24:45.785Z,70.01
2018-07-05T23:27:26.274Z,70.50
2018-07-05T23:30:06.659Z,69.59
2018-07-05T23:32:47.138Z,69.29
2018-07-05T23:35:27.377Z,69.84
2018-07-05T23:38:07.839Z,69.37
2018-07-05T23:40:48.169Z,69.38
2018-07-05T23:43:28.476Z,68.42
2018-07-05T23:46:08.773Z,69.03
2018-07-05T23:48:49.186Z,69.15
2018-07-05T23:51:29.530Z,70.18
2018-07-05T23:54:10.111Z,70.02
2018-07-05T23:56:50.547Z,69.34
2018-07-05T23:59:30.828Z,70.00
